Time;durP1;ratioP1;P1;durP2;ratioP2;P2;SDS_P1;SDS_P2;PMS_P1;PMS_P2;Temp;Humidity;BMP_temperature;BMP_pressure;BME280_temperature;BME280_humidity;BME280_pressure;Samples;Min_cycle;Max_cycle;Signal;HPM_P1;HPM_P2
2023/04/04 00:00:11;;;;;;;5.40;4.90;;;8.00;99.90;;;;;;4960199;29;20027;-72
2023/04/04 00:02:36;;;;;;;5.32;4.82;;;7.90;99.90;;;;;;4958688;28;20403;-71
2023/04/04 00:05:04;;;;;;;5.95;4.70;;;7.80;99.90;;;;;;4959980;28;20039;-71
2023/04/04 00:07:29;;;;;;;5.78;5.18;;;7.80;99.90;;;;;;4958758;28;20015;-71
2023/04/04 00:09:55;;;;;;;6.22;5.55;;;7.70;99.90;;;;;;4959954;29;20031;-72
2023/04/04 00:12:21;;;;;;;6.82;6.10;;;7.70;99.90;;;;;;4959980;28;20023;-72
2023/04/04 00:14:47;;;;;;;6.15;5.55;;;7.70;99.90;;;;;;4959881;28;20101;-71
2023/04/04 00:17:12;;;;;;;6.45;5.57;;;7.60;99.90;;;;;;4959516;28;20015;-71
2023/04/04 00:19:38;;;;;;;6.38;5.78;;;7.50;99.90;;;;;;4959635;28;20051;-71
2023/04/04 00:22:04;;;;;;;6.05;5.45;;;7.50;99.90;;;;;;4959756;28;20043;-72
2023/04/04 00:24:30;;;;;;;6.55;5.93;;;7.50;99.90;;;;;;4959794;28;20031;-71
2023/04/04 00:26:56;;;;;;;8.45;6.10;;;7.40;99.90;;;;;;4956776;28;20094;-72
2023/04/04 00:29:21;;;;;;;6.50;5.90;;;7.40;99.90;;;;;;4959720;29;20058;-71
2023/04/04 00:31:47;;;;;;;5.28;4.57;;;7.30;99.90;;;;;;4959412;28;20023;-71
2023/04/04 00:34:13;;;;;;;6.32;5.50;;;7.30;99.90;;;;;;4959627;28;20027;-71
2023/04/04 00:36:38;;;;;;;7.07;6.10;;;7.30;99.90;;;;;;4958196;28;20040;-72
2023/04/04 00:39:04;;;;;;;5.70;5.15;;;7.40;99.90;;;;;;4959566;28;20024;-71
2023/04/04 00:41:30;;;;;;;6.10;5.50;;;7.30;99.90;;;;;;4958099;28;20023;-71
2023/04/04 00:43:56;;;;;;;7.10;6.28;;;7.30;99.90;;;;;;4959409;28;20103;-71
2023/04/04 00:46:23;;;;;;;7.85;6.03;;;7.30;99.90;;;;;;4957241;28;20393;-71
2023/04/04 00:48:50;;;;;;;7.88;5.60;;;7.20;99.90;;;;;;4959138;28;20114;-71
2023/04/04 00:51:15;;;;;;;7.72;6.07;;;7.20;99.90;;;;;;4959065;28;20082;-71
2023/04/04 00:53:44;;;;;;;6.80;5.85;;;7.20;99.90;;;;;;4958028;28;20027;-71
2023/04/04 00:56:10;;;;;;;6.45;5.72;;;7.20;99.90;;;;;;4957920;28;20492;-71
2023/04/04 00:58:35;;;;;;;5.90;5.25;;;7.20;99.90;;;;;;4959187;28;20032;-71
2023/04/04 01:01:01;;;;;;;6.22;5.55;;;7.20;99.90;;;;;;4958997;29;20023;-71
2023/04/04 01:03:28;;;;;;;7.60;5.63;;;7.20;99.90;;;;;;4958279;29;20174;-71
2023/04/04 01:05:54;;;;;;;7.50;6.18;;;7.10;99.90;;;;;;4959114;29;20023;-71
2023/04/04 01:08:24;;;;;;;6.70;5.50;;;7.00;99.90;;;;;;4957678;29;20051;-71
2023/04/04 01:10:50;;;;;;;6.55;5.28;;;7.10;99.90;;;;;;4958651;28;20110;-71
2023/04/04 01:13:16;;;;;;;7.38;6.18;;;7.00;99.90;;;;;;4957690;28;20056;-71
2023/04/04 01:15:42;;;;;;;9.07;6.25;;;7.00;99.90;;;;;;4957664;29;20503;-71
2023/04/04 01:18:10;;;;;;;10.85;7.95;;;6.90;99.90;;;;;;4957372;28;20050;-71
2023/04/04 01:20:43;;;;;;;9.18;6.65;;;6.80;99.90;;;;;;4958834;28;20043;-71
2023/04/04 01:23:09;;;;;;;8.85;6.75;;;6.80;99.90;;;;;;4955533;28;20090;-71
2023/04/04 01:25:35;;;;;;;6.38;5.68;;;6.70;99.90;;;;;;4957560;28;20036;-71
2023/04/04 01:28:01;;;;;;;6.80;6.13;;;6.70;99.90;;;;;;4958770;28;20031;-71
2023/04/04 01:30:33;;;;;;;7.57;6.05;;;6.70;99.90;;;;;;4957409;28;20026;-71
2023/04/04 01:33:15;;;;;;;6.40;5.80;;;6.60;99.90;;;;;;4958620;28;20019;-70
2023/04/04 01:35:56;;;;;;;6.60;5.95;;;6.60;99.90;;;;;;4957426;28;20023;-71
2023/04/04 01:38:46;;;;;;;9.93;6.43;;;6.50;99.90;;;;;;4952342;29;20031;-71
2023/04/04 01:41:13;;;;;;;6.30;5.47;;;6.40;99.90;;;;;;4957549;28;20162;-71
2023/04/04 01:43:39;;;;;;;6.13;5.13;;;6.40;99.90;;;;;;4957476;28;20024;-71
2023/04/04 01:46:05;;;;;;;6.75;5.47;;;6.40;99.90;;;;;;4954118;28;20032;-71
2023/04/04 01:48:31;;;;;;;5.82;5.30;;;6.40;99.90;;;;;;4955567;28;20030;-70
2023/04/04 01:50:57;;;;;;;7.38;5.18;;;6.30;99.90;;;;;;4958731;28;20456;-71
2023/04/04 01:53:22;;;;;;;5.63;5.13;;;6.30;99.90;;;;;;4958446;28;20024;-71
2023/04/04 01:55:48;;;;;;;5.45;4.95;;;6.30;99.90;;;;;;4957396;29;20031;-70
2023/04/04 01:58:14;;;;;;;8.23;5.93;;;6.30;99.90;;;;;;4958542;29;20086;-71
2023/04/04 02:00:40;;;;;;;6.00;5.43;;;6.30;99.90;;;;;;4958433;28;20027;-70
2023/04/04 02:03:06;;;;;;;6.93;5.88;;;6.30;99.90;;;;;;4957088;28;20030;-70
2023/04/04 02:05:32;;;;;;;7.50;6.07;;;6.30;99.90;;;;;;4957245;28;20859;-70
2023/04/04 02:07:57;;;;;;;9.23;6.38;;;6.20;99.90;;;;;;4958452;28;20615;-71
2023/04/04 02:10:23;;;;;;;7.05;6.35;;;6.20;99.90;;;;;;4958502;28;20111;-71
2023/04/04 02:12:52;;;;;;;8.07;6.60;;;6.10;99.90;;;;;;4958383;28;20023;-71
2023/04/04 02:15:18;;;;;;;9.20;6.35;;;6.00;99.90;;;;;;4958507;28;20031;-71
2023/04/04 02:17:47;;;;;;;6.50;5.40;;;5.90;99.90;;;;;;4958096;28;20110;-71
2023/04/04 02:20:12;;;;;;;6.70;6.10;;;5.90;99.90;;;;;;4956985;28;20134;-71
2023/04/04 02:22:38;;;;;;;6.60;5.93;;;5.80;99.90;;;;;;4960154;28;20046;-71
2023/04/04 02:25:04;;;;;;;7.35;6.30;;;5.80;99.90;;;;;;4962157;29;20039;-71
2023/04/04 02:27:30;;;;;;;7.18;6.47;;;5.70;99.90;;;;;;4955596;28;20025;-71
2023/04/04 02:29:55;;;;;;;8.13;7.05;;;5.60;99.90;;;;;;4960637;28;20158;-71
2023/04/04 02:32:22;;;;;;;7.43;6.72;;;5.60;99.90;;;;;;4960245;28;20023;-71
2023/04/04 02:34:48;;;;;;;9.07;6.72;;;5.50;99.90;;;;;;4961986;28;20031;-71
2023/04/04 02:37:13;;;;;;;7.45;6.65;;;5.40;99.90;;;;;;4961665;28;20031;-72
2023/04/04 02:39:39;;;;;;;9.10;7.03;;;5.40;99.90;;;;;;4961842;28;20028;-71
2023/04/04 02:42:05;;;;;;;7.68;6.93;;;5.40;99.90;;;;;;4961493;28;20033;-71
2023/04/04 02:44:30;;;;;;;8.98;6.70;;;5.40;99.90;;;;;;4960414;28;20110;-71
2023/04/04 02:46:56;;;;;;;7.82;7.07;;;5.30;99.90;;;;;;4956015;28;20388;-71
2023/04/04 02:49:22;;;;;;;7.40;6.70;;;5.20;99.90;;;;;;4959890;28;20098;-72
2023/04/04 02:51:47;;;;;;;7.20;6.10;;;5.20;99.90;;;;;;4961299;28;20036;-71
2023/04/04 02:54:13;;;;;;;7.80;7.00;;;5.20;99.90;;;;;;4961787;28;20070;-71
2023/04/04 02:56:39;;;;;;;7.20;6.50;;;5.20;99.90;;;;;;4961355;28;20027;-71
2023/04/04 02:59:04;;;;;;;8.27;6.80;;;5.10;99.90;;;;;;4961547;28;20023;-71
2023/04/04 03:01:31;;;;;;;8.32;6.93;;;5.10;99.90;;;;;;4960959;28;20038;-71
2023/04/04 03:03:56;;;;;;;7.20;6.47;;;5.10;99.90;;;;;;4959905;28;20087;-71
2023/04/04 03:06:22;;;;;;;6.95;6.28;;;5.00;99.90;;;;;;4959121;28;20567;-70
2023/04/04 03:08:47;;;;;;;7.15;6.45;;;5.10;99.90;;;;;;4961388;28;20204;-71
2023/04/04 03:11:20;;;;;;;6.93;6.25;;;5.00;99.90;;;;;;4960585;28;20110;-71
2023/04/04 03:13:45;;;;;;;7.05;6.45;;;5.00;99.90;;;;;;4960090;29;20023;-70
2023/04/04 03:16:14;;;;;;;7.30;6.50;;;5.00;99.90;;;;;;4960848;28;20026;-71
2023/04/04 03:18:39;;;;;;;8.45;6.65;;;5.00;99.90;;;;;;4961115;28;20562;-70
2023/04/04 03:21:05;;;;;;;7.03;6.28;;;5.00;99.90;;;;;;4959484;28;20070;-71
2023/04/04 03:23:31;;;;;;;6.75;6.05;;;5.00;99.90;;;;;;4961127;29;20027;-70
2023/04/04 03:25:58;;;;;;;7.57;6.85;;;4.90;99.90;;;;;;4959502;28;20253;-71
2023/04/04 03:28:23;;;;;;;7.63;6.07;;;4.90;99.90;;;;;;4954499;28;20035;-71
2023/04/04 03:30:49;;;;;;;7.40;6.70;;;4.90;99.90;;;;;;4959109;28;20119;-71
2023/04/04 03:33:15;;;;;;;6.55;5.95;;;4.90;99.90;;;;;;4960359;28;20030;-71
2023/04/04 03:35:41;;;;;;;7.55;6.60;;;4.90;99.90;;;;;;4960567;28;20074;-71
2023/04/04 03:38:08;;;;;;;8.45;6.68;;;4.90;99.90;;;;;;4960796;28;20061;-71
2023/04/04 03:40:34;;;;;;;7.03;6.32;;;4.80;99.90;;;;;;4960419;28;20034;-71
2023/04/04 03:43:01;;;;;;;6.70;6.07;;;4.80;99.90;;;;;;4960639;28;20038;-71
2023/04/04 03:45:28;;;;;;;7.43;6.45;;;4.80;99.90;;;;;;4960258;28;20031;-71
2023/04/04 03:47:53;;;;;;;7.53;6.78;;;4.80;99.90;;;;;;4954921;28;20384;-72
2023/04/04 03:50:19;;;;;;;7.85;6.95;;;4.80;99.90;;;;;;4960038;28;20035;-71
2023/04/04 03:52:46;;;;;;;6.25;5.65;;;4.70;99.90;;;;;;4960558;29;20488;-71
2023/04/04 03:55:12;;;;;;;6.75;6.15;;;4.70;99.90;;;;;;4960361;29;20025;-71
2023/04/04 03:57:37;;;;;;;7.22;6.22;;;4.60;99.90;;;;;;4960364;28;20027;-71
2023/04/04 04:00:04;;;;;;;6.55;5.97;;;4.60;99.90;;;;;;4960135;28;20022;-71
2023/04/04 04:02:30;;;;;;;6.80;6.20;;;4.60;99.90;;;;;;4958880;28;20027;-71
2023/04/04 04:04:55;;;;;;;7.53;6.82;;;4.50;99.90;;;;;;4959907;28;20103;-71
2023/04/04 04:07:21;;;;;;;6.45;5.85;;;4.50;99.90;;;;;;4958840;28;20069;-71
2023/04/04 04:09:46;;;;;;;6.63;6.03;;;4.50;99.90;;;;;;4958708;28;20092;-71
2023/04/04 04:12:12;;;;;;;6.95;6.32;;;4.50;99.90;;;;;;4958870;28;20027;-71
2023/04/04 04:14:38;;;;;;;7.00;6.30;;;4.40;99.90;;;;;;4959812;28;20035;-71
2023/04/04 04:17:04;;;;;;;7.55;6.85;;;4.40;99.90;;;;;;4959825;28;20023;-71
2023/04/04 04:19:30;;;;;;;7.25;6.65;;;4.40;99.90;;;;;;4959444;28;20146;-71
2023/04/04 04:21:55;;;;;;;8.50;7.60;;;4.30;99.90;;;;;;4960124;28;20054;-71
2023/04/04 04:24:21;;;;;;;7.18;6.47;;;4.30;99.90;;;;;;4958361;28;20402;-71
2023/04/04 04:26:47;;;;;;;7.72;7.00;;;4.20;99.90;;;;;;4958447;28;20033;-70
2023/04/04 04:29:12;;;;;;;9.07;7.45;;;4.30;99.90;;;;;;4959615;29;20027;-70
2023/04/04 04:31:38;;;;;;;8.57;7.30;;;4.30;99.90;;;;;;4959500;28;20035;-71
2023/04/04 04:34:05;;;;;;;8.18;7.43;;;4.30;99.90;;;;;;4959280;28;20061;-71
2023/04/04 04:36:31;;;;;;;9.25;8.02;;;4.30;99.90;;;;;;4959576;28;20095;-72
2023/04/04 04:38:57;;;;;;;12.73;8.60;;;4.20;99.90;;;;;;4959448;28;20027;-71
2023/04/04 04:41:22;;;;;;;8.00;7.20;;;4.20;99.90;;;;;;4959625;28;20027;-71
2023/04/04 04:43:48;;;;;;;10.30;8.07;;;4.20;99.90;;;;;;4957696;28;20114;-71
2023/04/04 04:46:14;;;;;;;8.90;8.05;;;4.20;99.90;;;;;;4957980;28;20025;-71
2023/04/04 04:48:39;;;;;;;10.07;8.65;;;4.20;99.90;;;;;;4959046;29;20038;-71
2023/04/04 04:51:05;;;;;;;7.97;7.18;;;4.10;99.90;;;;;;4959294;28;20027;-71
2023/04/04 04:53:31;;;;;;;8.80;7.88;;;4.10;99.90;;;;;;4959174;29;20023;-70
2023/04/04 04:55:57;;;;;;;9.25;8.05;;;4.10;99.90;;;;;;4959435;29;20030;-71
2023/04/04 04:58:23;;;;;;;9.65;8.15;;;4.00;99.90;;;;;;4957835;28;20029;-71
2023/04/04 05:00:48;;;;;;;9.13;8.25;;;4.00;99.90;;;;;;4959241;28;20166;-71
2023/04/04 05:03:14;;;;;;;8.80;7.90;;;4.00;99.90;;;;;;4958741;28;20086;-71
2023/04/04 05:05:42;;;;;;;8.82;7.95;;;3.90;99.90;;;;;;4959178;28;20031;-71
2023/04/04 05:08:08;;;;;;;10.57;9.48;;;3.90;99.90;;;;;;4958910;28;20023;-71
2023/04/04 05:10:34;;;;;;;10.10;9.07;;;3.90;99.90;;;;;;4957899;29;20034;-71
2023/04/04 05:12:59;;;;;;;9.23;8.25;;;3.80;99.90;;;;;;4957550;28;20037;-71
2023/04/04 05:15:27;;;;;;;10.10;8.88;;;3.90;99.90;;;;;;4957634;28;20019;-71
2023/04/04 05:17:53;;;;;;;9.75;8.75;;;3.80;99.90;;;;;;4958750;28;20106;-71
2023/04/04 05:20:19;;;;;;;10.18;9.07;;;3.80;99.90;;;;;;4958764;29;20071;-71
2023/04/04 05:22:45;;;;;;;9.93;8.75;;;3.80;99.90;;;;;;4958588;28;20042;-71
2023/04/04 05:25:12;;;;;;;9.60;8.57;;;3.80;99.90;;;;;;4958013;29;20019;-71
2023/04/04 05:27:38;;;;;;;10.32;8.57;;;3.80;99.90;;;;;;4957534;29;20467;-71
2023/04/04 05:30:05;;;;;;;11.57;8.80;;;3.70;99.90;;;;;;4958731;28;20106;-71
2023/04/04 05:32:30;;;;;;;11.77;9.07;;;3.70;99.90;;;;;;4958621;28;20024;-71
2023/04/04 05:34:56;;;;;;;10.98;8.98;;;3.70;99.90;;;;;;4958944;28;20081;-71
2023/04/04 05:37:22;;;;;;;10.65;9.55;;;3.70;99.90;;;;;;4957493;29;20030;-72
2023/04/04 05:39:47;;;;;;;9.85;8.85;;;3.70;99.90;;;;;;4958884;28;20448;-71
2023/04/04 05:42:13;;;;;;;9.68;8.70;;;3.60;99.90;;;;;;4958717;28;20074;-71
2023/04/04 05:44:39;;;;;;;10.23;9.25;;;3.60;99.90;;;;;;4957349;28;20035;-71
2023/04/04 05:47:04;;;;;;;12.23;9.63;;;3.70;99.90;;;;;;4958560;29;20571;-71
2023/04/04 05:49:30;;;;;;;12.35;8.85;;;3.70;99.90;;;;;;4958461;28;20024;-71
2023/04/04 05:51:56;;;;;;;10.43;9.20;;;3.80;99.90;;;;;;4957256;29;20086;-71
2023/04/04 05:54:22;;;;;;;11.30;9.85;;;3.80;99.90;;;;;;4958401;28;20049;-71
2023/04/04 05:56:48;;;;;;;10.65;9.55;;;3.80;99.90;;;;;;4961065;28;20071;-70
2023/04/04 05:59:13;;;;;;;10.27;9.23;;;3.90;99.90;;;;;;4962409;28;20476;-71
2023/04/04 06:01:39;;;;;;;12.25;10.38;;;4.00;99.90;;;;;;4960810;28;20085;-71
2023/04/04 06:04:05;;;;;;;12.40;9.73;;;4.10;99.90;;;;;;4962394;28;20023;-70
2023/04/04 06:06:32;;;;;;;15.23;10.45;;;4.20;99.90;;;;;;4962224;28;20023;-71
2023/04/04 06:08:58;;;;;;;12.65;10.23;;;4.30;99.90;;;;;;4962553;28;20024;-71
2023/04/04 06:11:25;;;;;;;10.60;9.38;;;4.40;99.90;;;;;;4961934;28;20039;-71
2023/04/04 06:13:51;;;;;;;15.85;9.88;;;4.50;99.90;;;;;;4962482;28;20030;-71
2023/04/04 06:16:17;;;;;;;11.32;9.18;;;4.50;99.90;;;;;;4961882;28;20440;-71
2023/04/04 06:18:43;;;;;;;14.13;10.45;;;4.60;99.90;;;;;;4962298;28;20023;-71
2023/04/04 06:21:08;;;;;;;10.20;9.15;;;4.70;99.90;;;;;;4960645;28;20051;-71
2023/04/04 06:23:36;;;;;;;13.82;8.77;;;4.70;99.90;;;;;;4962308;28;20023;-70
2023/04/04 06:26:02;;;;;;;13.77;9.82;;;4.80;99.90;;;;;;4961934;28;20388;-71
2023/04/04 06:28:28;;;;;;;10.30;9.27;;;4.90;99.90;;;;;;4954610;28;20096;-71
2023/04/04 06:30:53;;;;;;;11.25;9.88;;;5.00;99.90;;;;;;4961535;28;20041;-71
2023/04/04 06:33:19;;;;;;;9.85;8.75;;;5.00;99.90;;;;;;4961830;28;20026;-71
2023/04/04 06:35:45;;;;;;;10.25;9.18;;;5.00;99.90;;;;;;4961631;28;20463;-71
2023/04/04 06:38:11;;;;;;;10.18;8.70;;;5.20;99.90;;;;;;4962086;28;20062;-71
2023/04/04 06:40:37;;;;;;;11.35;8.57;;;5.20;99.90;;;;;;4961559;28;20100;-70
2023/04/04 06:43:02;;;;;;;15.75;9.52;;;5.20;99.90;;;;;;4961723;29;20044;-70
2023/04/04 06:45:28;;;;;;;9.63;8.63;;;5.30;99.90;;;;;;4959856;29;20027;-70
2023/04/04 06:47:54;;;;;;;11.68;9.30;;;5.40;99.90;;;;;;4954839;28;20431;-70
2023/04/04 06:50:22;;;;;;;10.75;8.80;;;5.40;99.90;;;;;;4961257;28;20396;-69
2023/04/04 06:52:49;;;;;;;9.95;8.95;;;5.40;99.90;;;;;;4961016;28;20035;-70
2023/04/04 06:55:15;;;;;;;9.68;8.07;;;5.50;99.90;;;;;;4961439;28;20026;-70
2023/04/04 06:57:41;;;;;;;9.13;8.20;;;5.50;99.90;;;;;;4959977;28;20098;-69
2023/04/04 07:00:07;;;;;;;10.65;8.63;;;5.50;99.90;;;;;;4961200;28;20031;-70
2023/04/04 07:02:33;;;;;;;11.50;8.25;;;5.60;99.90;;;;;;4961135;28;20030;-70
2023/04/04 07:04:59;;;;;;;8.80;7.90;;;5.60;99.90;;;;;;4961185;28;20098;-71
2023/04/04 07:07:25;;;;;;;14.63;8.13;;;5.60;99.90;;;;;;4960565;28;20023;-70
2023/04/04 07:09:50;;;;;;;8.45;7.45;;;5.70;99.90;;;;;;4961267;28;20054;-70
2023/04/04 07:12:16;;;;;;;9.40;8.13;;;5.80;99.90;;;;;;4961296;28;20495;-70
2023/04/04 07:14:42;;;;;;;9.98;8.50;;;5.80;99.90;;;;;;4961066;28;20032;-70
2023/04/04 07:17:08;;;;;;;9.23;8.32;;;5.90;99.90;;;;;;4961070;28;20047;-70
2023/04/04 07:19:34;;;;;;;10.32;8.52;;;6.00;99.90;;;;;;4959533;28;20049;-70
2023/04/04 07:21:59;;;;;;;9.48;8.48;;;6.00;99.90;;;;;;4961238;28;20450;-70
2023/04/04 07:24:25;;;;;;;10.43;8.65;;;6.00;99.90;;;;;;4960118;28;20399;-70
2023/04/04 07:26:51;;;;;;;11.40;8.73;;;6.00;99.90;;;;;;4959439;29;20024;-71
2023/04/04 07:29:16;;;;;;;8.60;7.70;;;6.10;99.90;;;;;;4960731;28;20038;-70
2023/04/04 07:31:42;;;;;;;8.70;7.75;;;6.20;99.90;;;;;;4960656;28;20380;-70
2023/04/04 07:34:08;;;;;;;9.23;7.88;;;6.20;99.90;;;;;;4960525;28;20039;-70
2023/04/04 07:36:34;;;;;;;9.00;8.13;;;6.20;99.90;;;;;;4960760;28;20019;-70
2023/04/04 07:38:59;;;;;;;9.85;7.45;;;6.20;99.90;;;;;;4959313;28;20039;-70
2023/04/04 07:41:26;;;;;;;9.57;8.13;;;6.30;99.90;;;;;;4960678;28;20396;-70
2023/04/04 07:43:51;;;;;;;12.63;8.45;;;6.30;99.90;;;;;;4960266;28;20019;-70
2023/04/04 07:46:17;;;;;;;8.02;7.22;;;6.40;99.90;;;;;;4960521;28;20026;-70
2023/04/04 07:48:43;;;;;;;8.52;6.85;;;6.50;99.90;;;;;;4948499;28;20476;-70
2023/04/04 07:51:09;;;;;;;9.63;7.50;;;6.50;99.90;;;;;;4959904;28;20070;-70
2023/04/04 07:53:35;;;;;;;11.05;8.32;;;6.60;99.90;;;;;;4973673;28;20070;-70
2023/04/04 07:56:05;;;;;;;9.85;7.00;;;6.60;99.90;;;;;;4972758;28;20019;-70
2023/04/04 07:58:34;;;;;;;9.23;7.35;;;6.70;99.90;;;;;;4970005;28;20034;-70
2023/04/04 08:01:01;;;;;;;8.80;7.18;;;6.70;99.90;;;;;;4970542;28;20030;-70
2023/04/04 08:03:26;;;;;;;8.63;7.55;;;6.80;99.90;;;;;;4974164;28;20030;-70
2023/04/04 08:05:52;;;;;;;8.57;7.13;;;6.90;99.90;;;;;;4977178;28;20113;-70
2023/04/04 08:08:18;;;;;;;8.15;6.85;;;7.10;99.90;;;;;;4966520;28;20103;-70
2023/04/04 08:10:45;;;;;;;7.80;6.60;;;7.20;99.90;;;;;;4974728;28;20069;-70
2023/04/04 08:13:12;;;;;;;7.85;6.45;;;7.30;99.90;;;;;;4965939;28;20042;-69
2023/04/04 08:15:38;;;;;;;7.22;6.35;;;7.30;99.90;;;;;;4970398;28;20021;-70
2023/04/04 08:18:03;;;;;;;6.30;5.70;;;7.30;99.90;;;;;;4972332;28;20692;-70
2023/04/04 08:20:30;;;;;;;9.52;6.82;;;7.30;99.90;;;;;;4968440;28;20054;-70
2023/04/04 08:22:56;;;;;;;7.57;6.85;;;7.40;99.90;;;;;;4967396;28;21943;-70
2023/04/04 08:25:22;;;;;;;6.38;5.78;;;7.50;99.90;;;;;;4973582;28;20057;-70
2023/04/04 08:27:47;;;;;;;6.25;5.03;;;7.60;99.90;;;;;;4968930;28;20031;-70
2023/04/04 08:30:14;;;;;;;6.18;5.53;;;7.70;99.90;;;;;;4971161;28;20029;-70
2023/04/04 08:32:41;;;;;;;6.35;5.35;;;7.70;99.90;;;;;;4970569;28;20035;-70
2023/04/04 08:35:07;;;;;;;5.40;4.90;;;7.70;99.90;;;;;;4974175;28;20019;-69
2023/04/04 08:37:34;;;;;;;5.80;5.20;;;7.80;99.90;;;;;;4967509;28;20466;-70
2023/04/04 08:40:01;;;;;;;8.15;5.57;;;8.00;99.90;;;;;;4976201;28;20023;-70
2023/04/04 08:42:34;;;;;;;7.35;5.70;;;8.00;99.90;;;;;;4969427;28;20039;-70
2023/04/04 08:45:03;;;;;;;6.60;5.90;;;8.10;99.90;;;;;;4972012;28;20019;-70
2023/04/04 08:47:31;;;;;;;6.25;5.15;;;8.20;99.90;;;;;;4965463;28;20058;-70
2023/04/04 08:50:00;;;;;;;5.78;4.70;;;8.20;99.90;;;;;;4970434;28;20042;-70
2023/04/04 08:52:27;;;;;;;5.47;4.43;;;8.30;99.90;;;;;;4970182;28;20096;-70
2023/04/04 08:54:53;;;;;;;6.07;5.47;;;8.30;99.90;;;;;;4970085;28;20035;-70
2023/04/04 08:57:19;;;;;;;6.88;4.90;;;8.30;99.90;;;;;;4972787;28;20483;-70
2023/04/04 08:59:46;;;;;;;6.80;5.18;;;8.40;99.90;;;;;;4969871;28;20443;-70
2023/04/04 09:02:35;;;;;;;5.63;5.13;;;8.50;99.90;;;;;;4966550;28;20032;-70
2023/04/04 09:05:02;;;;;;;6.10;5.50;;;8.60;99.90;;;;;;4971054;28;20034;-70
2023/04/04 09:07:28;;;;;;;6.00;5.13;;;8.70;99.90;;;;;;4968427;28;20046;-70
2023/04/04 09:09:54;;;;;;;6.10;5.50;;;8.80;99.90;;;;;;4966590;28;20031;-70
2023/04/04 09:12:21;;;;;;;6.05;5.40;;;8.80;99.90;;;;;;4958878;28;20031;-70
2023/04/04 09:14:50;;;;;;;7.22;6.43;;;8.80;99.90;;;;;;4949352;28;20027;-70
2023/04/04 09:17:16;;;;;;;5.07;4.57;;;8.90;99.90;;;;;;4964147;28;20078;-70
2023/04/04 09:19:41;;;;;;;5.40;4.90;;;8.90;99.90;;;;;;4968310;28;20511;-70
2023/04/04 09:22:08;;;;;;;7.40;5.00;;;9.00;99.90;;;;;;4974446;28;20388;-70
2023/04/04 09:24:42;;;;;;;8.18;5.35;;;9.10;99.90;;;;;;4961191;28;20107;-70
2023/04/04 09:27:11;;;;;;;5.93;4.70;;;9.10;99.90;;;;;;4962902;28;20668;-70
2023/04/04 09:29:41;;;;;;;6.82;4.15;;;9.20;99.90;;;;;;4972847;28;20035;-70
2023/04/04 09:32:08;;;;;;;5.10;4.38;;;9.30;99.90;;;;;;4965623;28;20023;-70
2023/04/04 09:34:34;;;;;;;4.78;4.30;;;9.40;99.90;;;;;;4969230;28;20395;-70
2023/04/04 09:36:59;;;;;;;5.20;4.65;;;9.30;99.90;;;;;;4973218;28;20026;-70
2023/04/04 09:39:26;;;;;;;4.97;4.40;;;9.30;99.90;;;;;;4967930;28;20023;-70
2023/04/04 09:41:52;;;;;;;6.97;4.55;;;9.50;99.90;;;;;;4962449;28;20055;-70
2023/04/04 09:44:17;;;;;;;6.28;4.35;;;9.50;99.90;;;;;;4967854;28;20030;-70
2023/04/04 09:46:44;;;;;;;4.53;4.10;;;9.50;99.90;;;;;;4983510;28;20086;-71
2023/04/04 09:49:10;;;;;;;5.45;3.97;;;9.60;99.90;;;;;;4960543;28;20419;-70
2023/04/04 09:51:37;;;;;;;4.25;3.85;;;9.80;99.90;;;;;;4966506;28;20026;-70
2023/04/04 09:54:05;;;;;;;4.90;4.20;;;9.70;99.90;;;;;;4967720;28;20028;-70
2023/04/04 09:56:33;;;;;;;4.13;3.72;;;9.70;99.90;;;;;;4970749;28;20078;-71
2023/04/04 09:59:01;;;;;;;5.05;4.43;;;9.90;99.90;;;;;;4968637;28;20042;-71
2023/04/04 10:01:27;;;;;;;4.47;4.07;;;10.00;99.90;;;;;;4970218;28;20051;-70
2023/04/04 10:03:54;;;;;;;5.20;4.70;;;10.00;99.90;;;;;;4967848;28;20042;-70
2023/04/04 10:06:20;;;;;;;4.32;3.92;;;10.20;99.90;;;;;;4965320;28;20032;-71
2023/04/04 10:08:47;;;;;;;4.40;4.00;;;10.30;99.90;;;;;;4958219;28;20061;-71
2023/04/04 10:11:12;;;;;;;3.88;3.58;;;10.30;99.90;;;;;;4965881;28;20022;-71
2023/04/04 10:13:39;;;;;;;4.68;4.07;;;10.30;99.90;;;;;;4960585;28;20099;-71
2023/04/04 10:16:06;;;;;;;4.75;3.70;;;10.30;99.90;;;;;;4952827;28;20551;-71
2023/04/04 10:18:34;;;;;;;3.00;2.80;;;10.20;99.90;;;;;;4966061;28;20034;-71
2023/04/04 10:21:02;;;;;;;3.47;3.17;;;10.20;99.90;;;;;;4963793;28;20468;-72
2023/04/04 10:23:28;;;;;;;5.20;4.03;;;10.30;99.90;;;;;;4964238;28;20031;-71
2023/04/04 10:25:55;;;;;;;4.57;4.07;;;10.40;99.90;;;;;;4967363;28;20058;-71
2023/04/04 10:28:21;;;;;;;4.45;4.05;;;10.40;99.90;;;;;;4963934;28;20070;-71
2023/04/04 10:30:59;;;;;;;4.70;4.13;;;10.50;99.90;;;;;;4969706;28;20032;-72
2023/04/04 10:33:36;;;;;;;4.22;3.50;;;10.40;99.90;;;;;;4962984;28;20019;-72
2023/04/04 10:36:06;;;;;;;4.70;4.00;;;10.50;99.90;;;;;;4965673;28;20030;-72
2023/04/04 10:38:39;;;;;;;4.28;3.88;;;10.70;99.90;;;;;;4959242;28;20134;-71
2023/04/04 10:41:07;;;;;;;5.55;3.70;;;10.60;99.90;;;;;;4968067;28;20127;-70
2023/04/04 10:43:38;;;;;;;4.00;3.60;;;10.60;99.90;;;;;;4959702;28;20031;-71
2023/04/04 10:46:29;;;;;;;5.53;3.92;;;10.70;99.90;;;;;;4967059;28;20030;-70
2023/04/04 10:48:59;;;;;;;3.60;3.30;;;10.90;99.90;;;;;;4960126;28;20031;-72
2023/04/04 10:51:25;;;;;;;4.10;3.70;;;11.00;99.90;;;;;;4969833;28;20023;-71
2023/04/04 10:53:52;;;;;;;4.13;3.72;;;10.90;99.90;;;;;;4964506;28;20125;-72
2023/04/04 10:56:20;;;;;;;3.80;3.40;;;10.80;99.90;;;;;;4957948;28;20070;-71
2023/04/04 10:58:47;;;;;;;5.75;4.10;;;10.80;99.90;;;;;;4967569;28;20029;-72
2023/04/04 11:01:19;;;;;;;3.88;3.17;;;10.80;99.90;;;;;;4974715;28;20038;-71
2023/04/04 11:04:20;;;;;;;3.95;3.58;;;10.70;99.90;;;;;;4968182;28;20031;-71
2023/04/04 11:07:08;;;;;;;2.92;2.72;;;10.70;99.90;;;;;;4965625;28;20022;-71
2023/04/04 11:09:54;;;;;;;4.60;3.17;;;10.90;99.90;;;;;;4954853;28;20518;-71
2023/04/04 11:12:28;;;;;;;4.45;3.30;;;11.00;99.90;;;;;;4962337;28;20383;-71
2023/04/04 11:15:15;;;;;;;7.18;3.75;;;11.00;99.90;;;;;;4969983;28;20019;-71
2023/04/04 11:17:52;;;;;;;7.65;4.47;;;11.00;99.90;;;;;;4964907;28;20020;-70
2023/04/04 11:20:33;;;;;;;4.65;3.75;;;11.10;99.90;;;;;;4961790;28;20189;-72
2023/04/04 11:23:07;;;;;;;5.45;3.53;;;11.20;99.90;;;;;;4967728;28;20027;-71
2023/04/04 11:25:40;;;;;;;9.60;3.83;;;11.30;99.90;;;;;;4971113;28;20034;-71
2023/04/04 11:28:10;;;;;;;6.82;4.70;;;11.20;99.90;;;;;;4965736;28;20025;-70
2023/04/04 11:30:46;;;;;;;5.53;3.80;;;11.30;99.90;;;;;;4973504;28;20114;-70
2023/04/04 11:33:13;;;;;;;4.45;3.67;;;11.50;99.90;;;;;;4971280;28;20038;-71
2023/04/04 11:35:39;;;;;;;4.30;3.35;;;11.40;99.90;;;;;;4968656;28;20027;-72
2023/04/04 11:38:13;;;;;;;5.40;3.42;;;11.30;99.90;;;;;;4977558;28;20045;-71
2023/04/04 11:40:40;;;;;;;4.55;3.97;;;11.50;99.90;;;;;;4968482;28;20477;-69
2023/04/04 11:43:10;;;;;;;9.23;3.60;;;11.50;99.90;;;;;;4971626;28;20027;-71
2023/04/04 11:45:42;;;;;;;4.75;3.40;;;11.60;99.90;;;;;;4966547;28;20031;-70
2023/04/04 11:48:08;;;;;;;5.38;4.10;;;11.60;99.90;;;;;;4970500;28;20027;-69
2023/04/04 11:50:41;;;;;;;4.00;3.45;;;11.60;99.90;;;;;;4973991;28;20066;-68
2023/04/04 11:53:09;;;;;;;4.72;3.45;;;11.60;99.90;;;;;;4969919;28;20732;-68
2023/04/04 11:55:42;;;;;;;4.03;3.63;;;11.60;99.90;;;;;;4971663;28;20023;-69
2023/04/04 11:58:10;;;;;;;3.85;3.13;;;11.80;99.90;;;;;;4966185;28;20026;-71
2023/04/04 12:00:38;;;;;;;6.60;3.90;;;11.80;99.90;;;;;;4969042;28;20486;-71
2023/04/04 12:03:12;;;;;;;4.32;3.30;;;11.90;99.90;;;;;;4970204;28;20030;-72
2023/04/04 12:05:42;;;;;;;3.25;2.95;;;12.00;99.90;;;;;;4967394;28;20158;-72
2023/04/04 12:08:10;;;;;;;3.85;3.50;;;12.00;99.90;;;;;;4964585;28;20052;-71
2023/04/04 12:10:39;;;;;;;5.53;4.30;;;11.90;99.90;;;;;;4971691;28;20034;-71
2023/04/04 12:13:09;;;;;;;2.90;2.60;;;12.00;99.90;;;;;;4960181;28;20034;-70
2023/04/04 12:15:35;;;;;;;4.60;3.72;;;12.10;99.90;;;;;;4972008;28;20018;-71
2023/04/04 12:18:19;;;;;;;4.63;3.55;;;12.00;99.90;;;;;;4969665;28;20024;-71
2023/04/04 12:20:47;;;;;;;3.85;3.05;;;12.00;99.90;;;;;;4971462;28;20059;-71
2023/04/04 12:23:13;;;;;;;4.18;3.28;;;12.00;99.90;;;;;;4971081;28;21381;-70
2023/04/04 12:25:43;;;;;;;4.65;3.72;;;12.00;99.90;;;;;;4971865;28;20097;-71
2023/04/04 12:28:09;;;;;;;7.57;4.05;;;11.90;99.90;;;;;;4972589;28;20011;-71
2023/04/04 12:30:38;;;;;;;4.70;3.42;;;12.10;99.90;;;;;;4972926;28;20027;-70
2023/04/04 12:33:05;;;;;;;4.57;3.95;;;12.20;99.90;;;;;;4967897;28;20034;-71
2023/04/04 12:35:31;;;;;;;4.32;3.92;;;12.20;99.90;;;;;;4969804;28;20023;-71
2023/04/04 12:38:07;;;;;;;4.38;3.97;;;12.20;99.90;;;;;;4975028;28;20019;-71
2023/04/04 12:40:36;;;;;;;5.38;3.03;;;12.30;99.90;;;;;;4966728;28;20035;-72
2023/04/04 12:43:06;;;;;;;4.05;3.40;;;12.40;99.90;;;;;;4972229;28;20026;-71
2023/04/04 12:45:36;;;;;;;6.10;4.40;;;12.40;99.90;;;;;;4969355;28;20033;-71
2023/04/04 12:48:12;;;;;;;4.33;3.50;;;12.60;99.90;;;;;;4959048;28;20086;-71
2023/04/04 12:50:58;;;;;;;4.78;3.53;;;12.60;99.90;;;;;;4951352;28;20078;-72
2023/04/04 12:53:26;;;;;;;4.28;3.88;;;12.70;99.90;;;;;;4954388;29;20045;-71